sensor_id;sensor_type;location;lat;lon;timestamp;temperature;humidity
21950;DHT22;11139;51.284;7.226;2023-08-08T00:01:44;15.00;99.90
21950;DHT22;11139;51.284;7.226;2023-08-08T00:04:09;14.90;99.90
21950;DHT22;11139;51.284;7.226;2023-08-08T00:06:35;14.90;99.90
21950;DHT22;11139;51.284;7.226;2023-08-08T00:09:01;14.90;99.90
21950;DHT22;11139;51.284;7.226;2023-08-08T00:11:26;14.90;99.90
21950;DHT22;11139;51.284;7.226;2023-08-08T00:13:52;14.90;99.90
21950;DHT22;11139;51.284;7.226;2023-08-08T00:16:17;14.90;99.90
21950;DHT22;11139;51.284;7.226;2023-08-08T00:18:43;14.90;99.90
21950;DHT22;11139;51.284;7.226;2023-08-08T00:21:08;14.90;99.90
21950;DHT22;11139;51.284;7.226;2023-08-08T00:23:34;14.90;99.90
21950;DHT22;11139;51.284;7.226;2023-08-08T00:25:59;14.90;99.90
21950;DHT22;11139;51.284;7.226;2023-08-08T00:28:25;14.90;99.90
21950;DHT22;11139;51.284;7.226;2023-08-08T00:30:50;14.90;99.90
21950;DHT22;11139;51.284;7.226;2023-08-08T00:33:16;14.90;99.90
21950;DHT22;11139;51.284;7.226;2023-08-08T00:35:42;14.90;99.90
21950;DHT22;11139;51.284;7.226;2023-08-08T00:38:07;14.90;99.90
21950;DHT22;11139;51.284;7.226;2023-08-08T00:40:33;14.90;99.90
21950;DHT22;11139;51.284;7.226;2023-08-08T00:42:58;14.90;99.90
21950;DHT22;11139;51.284;7.226;2023-08-08T00:45:24;14.90;99.90
21950;DHT22;11139;51.284;7.226;2023-08-08T00:47:49;14.90;99.90
21950;DHT22;11139;51.284;7.226;2023-08-08T00:50:15;14.90;99.90
21950;DHT22;11139;51.284;7.226;2023-08-08T00:52:41;14.90;99.90
21950;DHT22;11139;51.284;7.226;2023-08-08T00:55:07;14.80;99.90
21950;DHT22;11139;51.284;7.226;2023-08-08T00:57:33;14.90;99.90
21950;DHT22;11139;51.284;7.226;2023-08-08T01:00:00;14.90;99.90
21950;DHT22;11139;51.284;7.226;2023-08-08T01:02:26;14.90;99.90
21950;DHT22;11139;51.284;7.226;2023-08-08T01:04:51;14.80;99.90
21950;DHT22;11139;51.284;7.226;2023-08-08T01:07:23;14.90;99.90
21950;DHT22;11139;51.284;7.226;2023-08-08T01:10:02;14.90;99.90
21950;DHT22;11139;51.284;7.226;2023-08-08T01:12:32;14.90;99.90
21950;DHT22;11139;51.284;7.226;2023-08-08T01:14:59;14.90;99.90
21950;DHT22;11139;51.284;7.226;2023-08-08T01:17:25;14.80;99.90
21950;DHT22;11139;51.284;7.226;2023-08-08T01:19:51;14.80;99.90
21950;DHT22;11139;51.284;7.226;2023-08-08T01:25:06;14.80;99.90
21950;DHT22;11139;51.284;7.226;2023-08-08T01:27:32;14.80;99.90
21950;DHT22;11139;51.284;7.226;2023-08-08T01:29:57;14.80;99.90
21950;DHT22;11139;51.284;7.226;2023-08-08T01:32:23;14.80;99.90
21950;DHT22;11139;51.284;7.226;2023-08-08T01:34:48;14.80;99.90
21950;DHT22;11139;51.284;7.226;2023-08-08T01:39:42;14.80;99.90
21950;DHT22;11139;51.284;7.226;2023-08-08T01:42:08;14.80;99.90
21950;DHT22;11139;51.284;7.226;2023-08-08T01:44:35;14.80;99.90
21950;DHT22;11139;51.284;7.226;2023-08-08T01:47:01;14.80;99.90
21950;DHT22;11139;51.284;7.226;2023-08-08T01:49:27;14.80;99.90
21950;DHT22;11139;51.284;7.226;2023-08-08T01:51:52;14.80;99.90
21950;DHT22;11139;51.284;7.226;2023-08-08T01:54:18;14.80;99.90
21950;DHT22;11139;51.284;7.226;2023-08-08T01:56:44;14.80;99.90
21950;DHT22;11139;51.284;7.226;2023-08-08T01:59:09;14.80;99.90
21950;DHT22;11139;51.284;7.226;2023-08-08T02:01:35;14.80;99.90
21950;DHT22;11139;51.284;7.226;2023-08-08T02:04:01;14.80;99.90
21950;DHT22;11139;51.284;7.226;2023-08-08T02:06:26;14.80;99.90
21950;DHT22;11139;51.284;7.226;2023-08-08T02:08:51;14.80;99.90
21950;DHT22;11139;51.284;7.226;2023-08-08T02:11:17;14.80;99.90
21950;DHT22;11139;51.284;7.226;2023-08-08T02:13:42;14.80;99.90
21950;DHT22;11139;51.284;7.226;2023-08-08T02:16:08;14.70;99.90
21950;DHT22;11139;51.284;7.226;2023-08-08T02:18:33;14.80;99.90
21950;DHT22;11139;51.284;7.226;2023-08-08T02:20:59;14.70;99.90
21950;DHT22;11139;51.284;7.226;2023-08-08T02:23:25;14.70;99.90
21950;DHT22;11139;51.284;7.226;2023-08-08T02:25:51;14.70;99.90
21950;DHT22;11139;51.284;7.226;2023-08-08T02:28:17;14.70;99.90
21950;DHT22;11139;51.284;7.226;2023-08-08T02:30:42;14.70;99.90
21950;DHT22;11139;51.284;7.226;2023-08-08T02:33:08;14.70;99.90
21950;DHT22;11139;51.284;7.226;2023-08-08T02:35:33;14.70;99.90
21950;DHT22;11139;51.284;7.226;2023-08-08T02:37:59;14.70;99.90
21950;DHT22;11139;51.284;7.226;2023-08-08T02:40:24;14.70;99.90
21950;DHT22;11139;51.284;7.226;2023-08-08T02:42:52;14.70;99.90
21950;DHT22;11139;51.284;7.226;2023-08-08T02:45:17;14.70;99.90
21950;DHT22;11139;51.284;7.226;2023-08-08T02:47:43;14.70;99.90
21950;DHT22;11139;51.284;7.226;2023-08-08T02:50:08;14.70;99.90
21950;DHT22;11139;51.284;7.226;2023-08-08T02:52:34;14.70;99.90
21950;DHT22;11139;51.284;7.226;2023-08-08T02:54:59;14.70;99.90
21950;DHT22;11139;51.284;7.226;2023-08-08T02:57:25;14.70;99.90
21950;DHT22;11139;51.284;7.226;2023-08-08T02:59:50;14.70;99.90
21950;DHT22;11139;51.284;7.226;2023-08-08T03:02:16;14.70;99.90
21950;DHT22;11139;51.284;7.226;2023-08-08T03:04:41;14.70;99.90
21950;DHT22;11139;51.284;7.226;2023-08-08T03:07:07;14.70;99.90
21950;DHT22;11139;51.284;7.226;2023-08-08T03:09:32;14.70;99.90
21950;DHT22;11139;51.284;7.226;2023-08-08T03:11:58;14.70;99.90
21950;DHT22;11139;51.284;7.226;2023-08-08T03:14:23;14.70;99.90
21950;DHT22;11139;51.284;7.226;2023-08-08T03:16:49;14.70;99.90
21950;DHT22;11139;51.284;7.226;2023-08-08T03:19:14;14.70;99.90
21950;DHT22;11139;51.284;7.226;2023-08-08T03:21:39;14.70;99.90
21950;DHT22;11139;51.284;7.226;2023-08-08T03:24:05;14.60;99.90
21950;DHT22;11139;51.284;7.226;2023-08-08T03:26:30;14.70;99.90
21950;DHT22;11139;51.284;7.226;2023-08-08T03:28:56;14.70;99.90
21950;DHT22;11139;51.284;7.226;2023-08-08T03:31:21;14.70;99.90
21950;DHT22;11139;51.284;7.226;2023-08-08T03:33:47;14.70;99.90
21950;DHT22;11139;51.284;7.226;2023-08-08T03:36:15;14.60;99.90
21950;DHT22;11139;51.284;7.226;2023-08-08T03:38:41;14.70;99.90
21950;DHT22;11139;51.284;7.226;2023-08-08T03:41:11;14.70;99.90
21950;DHT22;11139;51.284;7.226;2023-08-08T03:43:37;14.70;99.90
21950;DHT22;11139;51.284;7.226;2023-08-08T03:46:02;14.70;99.90
21950;DHT22;11139;51.284;7.226;2023-08-08T03:48:28;14.60;99.90
21950;DHT22;11139;51.284;7.226;2023-08-08T03:50:53;14.60;99.90
21950;DHT22;11139;51.284;7.226;2023-08-08T03:53:19;14.70;99.90
21950;DHT22;11139;51.284;7.226;2023-08-08T03:55:44;14.60;99.90
21950;DHT22;11139;51.284;7.226;2023-08-08T03:58:10;14.60;99.90
21950;DHT22;11139;51.284;7.226;2023-08-08T04:00:35;14.60;99.90
21950;DHT22;11139;51.284;7.226;2023-08-08T04:03:03;14.60;99.90
21950;DHT22;11139;51.284;7.226;2023-08-08T04:05:28;14.60;99.90
21950;DHT22;11139;51.284;7.226;2023-08-08T04:07:53;14.60;99.90
21950;DHT22;11139;51.284;7.226;2023-08-08T04:10:19;14.60;99.90
21950;DHT22;11139;51.284;7.226;2023-08-08T04:12:44;14.60;99.90
21950;DHT22;11139;51.284;7.226;2023-08-08T04:15:10;14.60;99.90
21950;DHT22;11139;51.284;7.226;2023-08-08T04:17:35;14.60;99.90
21950;DHT22;11139;51.284;7.226;2023-08-08T04:20:01;14.60;99.90
21950;DHT22;11139;51.284;7.226;2023-08-08T04:22:27;14.60;99.90
21950;DHT22;11139;51.284;7.226;2023-08-08T04:24:53;14.60;99.90
21950;DHT22;11139;51.284;7.226;2023-08-08T04:27:18;14.60;99.90
21950;DHT22;11139;51.284;7.226;2023-08-08T04:29:44;14.60;99.90
21950;DHT22;11139;51.284;7.226;2023-08-08T04:32:09;14.60;99.90
21950;DHT22;11139;51.284;7.226;2023-08-08T04:34:35;14.60;99.90
21950;DHT22;11139;51.284;7.226;2023-08-08T04:37:00;14.60;99.90
21950;DHT22;11139;51.284;7.226;2023-08-08T04:39:26;14.60;99.90
21950;DHT22;11139;51.284;7.226;2023-08-08T04:41:51;14.60;99.90
21950;DHT22;11139;51.284;7.226;2023-08-08T04:44:17;14.60;99.90
21950;DHT22;11139;51.284;7.226;2023-08-08T04:46:42;14.60;99.90
21950;DHT22;11139;51.284;7.226;2023-08-08T04:49:08;14.60;99.90
21950;DHT22;11139;51.284;7.226;2023-08-08T04:51:33;14.60;99.90
21950;DHT22;11139;51.284;7.226;2023-08-08T04:53:59;14.60;99.90
21950;DHT22;11139;51.284;7.226;2023-08-08T04:56:24;14.60;99.90
21950;DHT22;11139;51.284;7.226;2023-08-08T04:58:49;14.60;99.90
21950;DHT22;11139;51.284;7.226;2023-08-08T05:01:15;14.50;99.90
21950;DHT22;11139;51.284;7.226;2023-08-08T05:03:43;14.60;99.90
21950;DHT22;11139;51.284;7.226;2023-08-08T05:06:08;14.60;99.90
21950;DHT22;11139;51.284;7.226;2023-08-08T05:08:34;14.50;99.90
21950;DHT22;11139;51.284;7.226;2023-08-08T05:10:59;14.50;99.90
21950;DHT22;11139;51.284;7.226;2023-08-08T05:13:25;14.60;99.90
21950;DHT22;11139;51.284;7.226;2023-08-08T05:15:50;14.50;99.90
21950;DHT22;11139;51.284;7.226;2023-08-08T05:18:15;14.50;99.90
21950;DHT22;11139;51.284;7.226;2023-08-08T05:20:41;14.50;99.90
21950;DHT22;11139;51.284;7.226;2023-08-08T05:23:06;14.50;99.90
21950;DHT22;11139;51.284;7.226;2023-08-08T05:25:32;14.50;99.90
21950;DHT22;11139;51.284;7.226;2023-08-08T05:27:57;14.50;99.90
21950;DHT22;11139;51.284;7.226;2023-08-08T05:30:23;14.50;99.90
21950;DHT22;11139;51.284;7.226;2023-08-08T05:32:49;14.50;99.90
21950;DHT22;11139;51.284;7.226;2023-08-08T05:35:14;14.50;99.90
21950;DHT22;11139;51.284;7.226;2023-08-08T05:37:40;14.50;99.90
21950;DHT22;11139;51.284;7.226;2023-08-08T05:40:05;14.50;99.90
21950;DHT22;11139;51.284;7.226;2023-08-08T05:42:31;14.50;99.90
21950;DHT22;11139;51.284;7.226;2023-08-08T05:44:57;14.50;99.90
21950;DHT22;11139;51.284;7.226;2023-08-08T05:47:23;14.50;99.90
21950;DHT22;11139;51.284;7.226;2023-08-08T05:49:48;14.50;99.90
21950;DHT22;11139;51.284;7.226;2023-08-08T05:52:14;14.50;99.90
21950;DHT22;11139;51.284;7.226;2023-08-08T05:54:39;14.50;99.90
21950;DHT22;11139;51.284;7.226;2023-08-08T05:57:05;14.50;99.90
21950;DHT22;11139;51.284;7.226;2023-08-08T05:59:30;14.50;99.90
21950;DHT22;11139;51.284;7.226;2023-08-08T06:01:56;14.50;99.90
21950;DHT22;11139;51.284;7.226;2023-08-08T06:04:21;14.50;99.90
21950;DHT22;11139;51.284;7.226;2023-08-08T06:06:47;14.50;99.90
21950;DHT22;11139;51.284;7.226;2023-08-08T06:09:14;14.50;99.90
21950;DHT22;11139;51.284;7.226;2023-08-08T06:11:40;14.50;99.90
21950;DHT22;11139;51.284;7.226;2023-08-08T06:14:05;14.50;99.90
21950;DHT22;11139;51.284;7.226;2023-08-08T06:16:31;14.50;99.90
21950;DHT22;11139;51.284;7.226;2023-08-08T06:18:56;14.50;99.90
21950;DHT22;11139;51.284;7.226;2023-08-08T06:21:22;14.50;99.90
21950;DHT22;11139;51.284;7.226;2023-08-08T06:23:47;14.50;99.90
21950;DHT22;11139;51.284;7.226;2023-08-08T06:26:13;14.50;99.90
21950;DHT22;11139;51.284;7.226;2023-08-08T06:28:39;14.50;99.90
21950;DHT22;11139;51.284;7.226;2023-08-08T06:31:04;14.50;99.90
21950;DHT22;11139;51.284;7.226;2023-08-08T06:33:30;14.50;99.90
21950;DHT22;11139;51.284;7.226;2023-08-08T06:35:55;14.50;99.90
21950;DHT22;11139;51.284;7.226;2023-08-08T06:38:21;14.50;99.90
21950;DHT22;11139;51.284;7.226;2023-08-08T06:40:47;14.50;99.90
21950;DHT22;11139;51.284;7.226;2023-08-08T06:43:12;14.50;99.90
21950;DHT22;11139;51.284;7.226;2023-08-08T06:45:38;14.50;99.90
21950;DHT22;11139;51.284;7.226;2023-08-08T06:48:04;14.50;99.90
21950;DHT22;11139;51.284;7.226;2023-08-08T06:50:30;14.50;99.90
21950;DHT22;11139;51.284;7.226;2023-08-08T06:52:55;14.50;99.90
21950;DHT22;11139;51.284;7.226;2023-08-08T06:55:21;14.50;99.90
21950;DHT22;11139;51.284;7.226;2023-08-08T06:57:46;14.50;99.90
21950;DHT22;11139;51.284;7.226;2023-08-08T07:00:12;14.50;99.90
21950;DHT22;11139;51.284;7.226;2023-08-08T07:02:38;14.50;99.90
21950;DHT22;11139;51.284;7.226;2023-08-08T07:05:07;14.50;99.90
21950;DHT22;11139;51.284;7.226;2023-08-08T07:07:32;14.50;99.90
21950;DHT22;11139;51.284;7.226;2023-08-08T07:09:59;14.50;99.90
21950;DHT22;11139;51.284;7.226;2023-08-08T07:12:24;14.50;99.90
21950;DHT22;11139;51.284;7.226;2023-08-08T07:14:50;14.50;99.90
21950;DHT22;11139;51.284;7.226;2023-08-08T07:17:15;14.50;99.90
21950;DHT22;11139;51.284;7.226;2023-08-08T07:19:41;14.50;99.90
21950;DHT22;11139;51.284;7.226;2023-08-08T07:22:06;14.50;99.90
21950;DHT22;11139;51.284;7.226;2023-08-08T07:24:32;14.50;99.90
21950;DHT22;11139;51.284;7.226;2023-08-08T07:26:58;14.50;99.90
21950;DHT22;11139;51.284;7.226;2023-08-08T07:29:23;14.50;99.90
21950;DHT22;11139;51.284;7.226;2023-08-08T07:31:51;14.50;99.90
21950;DHT22;11139;51.284;7.226;2023-08-08T07:34:16;14.50;99.90
21950;DHT22;11139;51.284;7.226;2023-08-08T07:36:42;14.50;99.90
21950;DHT22;11139;51.284;7.226;2023-08-08T07:39:07;14.50;99.90
21950;DHT22;11139;51.284;7.226;2023-08-08T07:41:33;14.40;99.90
21950;DHT22;11139;51.284;7.226;2023-08-08T07:44:00;14.50;99.90
21950;DHT22;11139;51.284;7.226;2023-08-08T07:46:25;14.50;99.90
21950;DHT22;11139;51.284;7.226;2023-08-08T07:48:51;14.50;99.90
21950;DHT22;11139;51.284;7.226;2023-08-08T07:51:16;14.50;99.90
21950;DHT22;11139;51.284;7.226;2023-08-08T07:53:42;14.50;99.90
21950;DHT22;11139;51.284;7.226;2023-08-08T07:56:07;14.50;99.90
21950;DHT22;11139;51.284;7.226;2023-08-08T07:58:33;14.50;99.90
21950;DHT22;11139;51.284;7.226;2023-08-08T08:00:58;14.50;99.90
21950;DHT22;11139;51.284;7.226;2023-08-08T08:03:25;14.50;99.90
21950;DHT22;11139;51.284;7.226;2023-08-08T08:05:51;14.50;99.90
21950;DHT22;11139;51.284;7.226;2023-08-08T08:08:16;14.50;99.90
21950;DHT22;11139;51.284;7.226;2023-08-08T08:10:42;14.50;99.90
21950;DHT22;11139;51.284;7.226;2023-08-08T08:13:08;14.50;99.90
21950;DHT22;11139;51.284;7.226;2023-08-08T08:15:33;14.50;99.90
21950;DHT22;11139;51.284;7.226;2023-08-08T08:17:59;14.50;99.90
21950;DHT22;11139;51.284;7.226;2023-08-08T08:20:24;14.50;99.90
21950;DHT22;11139;51.284;7.226;2023-08-08T08:22:50;14.50;99.90
21950;DHT22;11139;51.284;7.226;2023-08-08T08:25:15;14.50;99.90
21950;DHT22;11139;51.284;7.226;2023-08-08T08:27:41;14.60;99.90
21950;DHT22;11139;51.284;7.226;2023-08-08T08:30:07;14.50;99.90
21950;DHT22;11139;51.284;7.226;2023-08-08T08:32:35;14.50;99.90
21950;DHT22;11139;51.284;7.226;2023-08-08T08:35:04;14.50;99.90
21950;DHT22;11139;51.284;7.226;2023-08-08T08:37:31;14.60;99.90
21950;DHT22;11139;51.284;7.226;2023-08-08T08:39:57;14.50;99.90
21950;DHT22;11139;51.284;7.226;2023-08-08T08:42:22;14.60;99.90
21950;DHT22;11139;51.284;7.226;2023-08-08T08:44:48;14.60;99.90
21950;DHT22;11139;51.284;7.226;2023-08-08T08:47:14;14.60;99.90
21950;DHT22;11139;51.284;7.226;2023-08-08T08:49:42;14.50;99.90
21950;DHT22;11139;51.284;7.226;2023-08-08T08:52:11;14.60;99.90
21950;DHT22;11139;51.284;7.226;2023-08-08T08:54:36;14.60;99.90
21950;DHT22;11139;51.284;7.226;2023-08-08T08:57:02;14.50;99.90
21950;DHT22;11139;51.284;7.226;2023-08-08T08:59:27;14.60;99.90
21950;DHT22;11139;51.284;7.226;2023-08-08T09:01:53;14.60;99.90
21950;DHT22;11139;51.284;7.226;2023-08-08T09:04:19;14.60;99.90
21950;DHT22;11139;51.284;7.226;2023-08-08T09:06:45;14.60;99.90
21950;DHT22;11139;51.284;7.226;2023-08-08T09:09:14;14.60;99.90
21950;DHT22;11139;51.284;7.226;2023-08-08T09:11:42;14.60;99.90
21950;DHT22;11139;51.284;7.226;2023-08-08T09:14:17;14.60;99.90
21950;DHT22;11139;51.284;7.226;2023-08-08T09:16:43;14.60;99.90
21950;DHT22;11139;51.284;7.226;2023-08-08T09:19:09;14.60;99.90
21950;DHT22;11139;51.284;7.226;2023-08-08T09:21:34;14.60;99.90
21950;DHT22;11139;51.284;7.226;2023-08-08T09:24:00;14.60;99.90
21950;DHT22;11139;51.284;7.226;2023-08-08T09:26:25;14.60;99.90
21950;DHT22;11139;51.284;7.226;2023-08-08T09:28:51;14.60;99.90
21950;DHT22;11139;51.284;7.226;2023-08-08T09:31:16;14.60;99.90
21950;DHT22;11139;51.284;7.226;2023-08-08T09:33:42;14.60;99.90
21950;DHT22;11139;51.284;7.226;2023-08-08T09:36:15;14.60;99.90
21950;DHT22;11139;51.284;7.226;2023-08-08T09:38:41;14.60;99.90
21950;DHT22;11139;51.284;7.226;2023-08-08T09:41:06;14.60;99.90
21950;DHT22;11139;51.284;7.226;2023-08-08T09:43:32;14.60;99.90
21950;DHT22;11139;51.284;7.226;2023-08-08T09:45:58;14.60;99.90
21950;DHT22;11139;51.284;7.226;2023-08-08T09:48:29;14.70;99.90
21950;DHT22;11139;51.284;7.226;2023-08-08T09:50:54;14.70;99.90
21950;DHT22;11139;51.284;7.226;2023-08-08T09:53:20;14.70;99.90
21950;DHT22;11139;51.284;7.226;2023-08-08T09:55:45;14.80;99.90
21950;DHT22;11139;51.284;7.226;2023-08-08T09:58:12;14.80;99.90
21950;DHT22;11139;51.284;7.226;2023-08-08T10:00:38;14.80;99.90
21950;DHT22;11139;51.284;7.226;2023-08-08T10:03:03;14.80;99.90
21950;DHT22;11139;51.284;7.226;2023-08-08T10:05:30;14.90;99.90
21950;DHT22;11139;51.284;7.226;2023-08-08T10:07:55;14.80;99.90
21950;DHT22;11139;51.284;7.226;2023-08-08T10:10:21;14.80;99.90
21950;DHT22;11139;51.284;7.226;2023-08-08T10:12:47;14.90;99.90
21950;DHT22;11139;51.284;7.226;2023-08-08T10:15:13;14.90;99.90
21950;DHT22;11139;51.284;7.226;2023-08-08T10:17:39;14.90;99.90
21950;DHT22;11139;51.284;7.226;2023-08-08T10:20:05;14.90;99.90
21950;DHT22;11139;51.284;7.226;2023-08-08T10:22:41;14.90;99.90
21950;DHT22;11139;51.284;7.226;2023-08-08T10:25:07;15.00;99.90
21950;DHT22;11139;51.284;7.226;2023-08-08T10:27:34;15.00;99.90
21950;DHT22;11139;51.284;7.226;2023-08-08T10:30:01;15.00;99.90
21950;DHT22;11139;51.284;7.226;2023-08-08T10:32:26;15.00;99.90
21950;DHT22;11139;51.284;7.226;2023-08-08T10:34:54;15.00;99.90
21950;DHT22;11139;51.284;7.226;2023-08-08T10:37:20;15.00;99.90
21950;DHT22;11139;51.284;7.226;2023-08-08T10:39:52;15.00;99.90
21950;DHT22;11139;51.284;7.226;2023-08-08T10:42:19;15.00;99.90
21950;DHT22;11139;51.284;7.226;2023-08-08T10:44:50;15.00;99.90
21950;DHT22;11139;51.284;7.226;2023-08-08T10:47:21;15.00;99.90
21950;DHT22;11139;51.284;7.226;2023-08-08T10:49:55;15.00;99.90
21950;DHT22;11139;51.284;7.226;2023-08-08T10:52:21;15.00;99.90
21950;DHT22;11139;51.284;7.226;2023-08-08T10:54:51;14.90;99.90
21950;DHT22;11139;51.284;7.226;2023-08-08T10:57:17;14.90;99.90
21950;DHT22;11139;51.284;7.226;2023-08-08T10:59:44;15.00;99.90
21950;DHT22;11139;51.284;7.226;2023-08-08T11:02:10;15.00;99.90
21950;DHT22;11139;51.284;7.226;2023-08-08T11:04:35;14.90;99.90
21950;DHT22;11139;51.284;7.226;2023-08-08T11:07:01;15.00;99.90
21950;DHT22;11139;51.284;7.226;2023-08-08T11:09:26;15.00;99.90
21950;DHT22;11139;51.284;7.226;2023-08-08T11:11:52;14.90;99.90
21950;DHT22;11139;51.284;7.226;2023-08-08T11:14:21;14.90;99.90
21950;DHT22;11139;51.284;7.226;2023-08-08T11:16:47;14.90;99.90
21950;DHT22;11139;51.284;7.226;2023-08-08T11:19:13;14.90;99.90
21950;DHT22;11139;51.284;7.226;2023-08-08T11:21:43;15.00;99.90
21950;DHT22;11139;51.284;7.226;2023-08-08T11:24:09;15.00;99.90
21950;DHT22;11139;51.284;7.226;2023-08-08T11:26:35;15.00;99.90
21950;DHT22;11139;51.284;7.226;2023-08-08T11:29:01;15.00;99.90
21950;DHT22;11139;51.284;7.226;2023-08-08T11:31:27;15.00;99.90
21950;DHT22;11139;51.284;7.226;2023-08-08T11:33:53;15.00;99.90
21950;DHT22;11139;51.284;7.226;2023-08-08T11:36:19;15.00;99.90
21950;DHT22;11139;51.284;7.226;2023-08-08T11:38:45;14.90;99.90
21950;DHT22;11139;51.284;7.226;2023-08-08T11:41:15;14.90;99.90
21950;DHT22;11139;51.284;7.226;2023-08-08T11:43:41;14.90;99.90
21950;DHT22;11139;51.284;7.226;2023-08-08T11:46:13;14.90;99.90
21950;DHT22;11139;51.284;7.226;2023-08-08T11:48:38;14.90;99.90
21950;DHT22;11139;51.284;7.226;2023-08-08T11:51:04;14.90;99.90
21950;DHT22;11139;51.284;7.226;2023-08-08T11:53:30;15.00;99.90
21950;DHT22;11139;51.284;7.226;2023-08-08T11:55:56;15.00;99.90
21950;DHT22;11139;51.284;7.226;2023-08-08T11:58:26;15.00;99.90
21950;DHT22;11139;51.284;7.226;2023-08-08T12:00:52;15.10;99.90
21950;DHT22;11139;51.284;7.226;2023-08-08T12:03:19;15.10;99.90
21950;DHT22;11139;51.284;7.226;2023-08-08T12:05:45;15.10;99.90
21950;DHT22;11139;51.284;7.226;2023-08-08T12:08:11;15.10;99.90
21950;DHT22;11139;51.284;7.226;2023-08-08T12:10:36;15.00;99.90
21950;DHT22;11139;51.284;7.226;2023-08-08T12:13:02;15.10;99.90
21950;DHT22;11139;51.284;7.226;2023-08-08T12:15:31;15.10;99.90
21950;DHT22;11139;51.284;7.226;2023-08-08T12:17:58;15.00;99.90
21950;DHT22;11139;51.284;7.226;2023-08-08T12:20:23;15.00;99.90
21950;DHT22;11139;51.284;7.226;2023-08-08T12:22:52;15.10;99.90
21950;DHT22;11139;51.284;7.226;2023-08-08T12:25:17;15.20;99.90
21950;DHT22;11139;51.284;7.226;2023-08-08T12:27:42;15.20;99.90
21950;DHT22;11139;51.284;7.226;2023-08-08T12:30:08;15.20;99.90
21950;DHT22;11139;51.284;7.226;2023-08-08T12:32:34;15.30;99.90
21950;DHT22;11139;51.284;7.226;2023-08-08T12:34:59;15.30;99.90
21950;DHT22;11139;51.284;7.226;2023-08-08T12:37:25;15.40;99.90
21950;DHT22;11139;51.284;7.226;2023-08-08T12:39:51;15.40;99.90
21950;DHT22;11139;51.284;7.226;2023-08-08T12:42:16;15.40;99.90
21950;DHT22;11139;51.284;7.226;2023-08-08T12:44:42;15.40;99.90
21950;DHT22;11139;51.284;7.226;2023-08-08T12:47:07;15.40;99.90
21950;DHT22;11139;51.284;7.226;2023-08-08T12:49:33;15.40;99.90
21950;DHT22;11139;51.284;7.226;2023-08-08T12:51:58;15.40;99.90
21950;DHT22;11139;51.284;7.226;2023-08-08T12:54:24;15.40;99.90
21950;DHT22;11139;51.284;7.226;2023-08-08T12:56:49;15.40;99.90
21950;DHT22;11139;51.284;7.226;2023-08-08T12:59:15;15.40;99.90
21950;DHT22;11139;51.284;7.226;2023-08-08T13:01:40;15.40;99.90
21950;DHT22;11139;51.284;7.226;2023-08-08T13:04:06;15.40;99.90
21950;DHT22;11139;51.284;7.226;2023-08-08T13:06:31;15.40;99.90
21950;DHT22;11139;51.284;7.226;2023-08-08T13:08:58;15.40;99.90
21950;DHT22;11139;51.284;7.226;2023-08-08T13:11:24;15.40;99.90
21950;DHT22;11139;51.284;7.226;2023-08-08T13:13:50;15.50;99.90
21950;DHT22;11139;51.284;7.226;2023-08-08T13:16:16;15.50;99.90
21950;DHT22;11139;51.284;7.226;2023-08-08T13:18:41;15.50;99.90
21950;DHT22;11139;51.284;7.226;2023-08-08T13:21:07;15.60;99.90
21950;DHT22;11139;51.284;7.226;2023-08-08T13:23:32;15.60;99.90
21950;DHT22;11139;51.284;7.226;2023-08-08T13:25:58;15.60;99.90
21950;DHT22;11139;51.284;7.226;2023-08-08T13:28:23;15.70;99.90
21950;DHT22;11139;51.284;7.226;2023-08-08T13:30:49;15.70;99.90
21950;DHT22;11139;51.284;7.226;2023-08-08T13:33:14;15.70;99.90
21950;DHT22;11139;51.284;7.226;2023-08-08T13:35:40;15.70;99.90
21950;DHT22;11139;51.284;7.226;2023-08-08T13:38:05;15.70;99.90
21950;DHT22;11139;51.284;7.226;2023-08-08T13:40:32;15.80;99.90
21950;DHT22;11139;51.284;7.226;2023-08-08T13:42:58;15.70;99.90
21950;DHT22;11139;51.284;7.226;2023-08-08T13:45:23;15.70;99.90
21950;DHT22;11139;51.284;7.226;2023-08-08T13:47:49;15.70;99.90
21950;DHT22;11139;51.284;7.226;2023-08-08T13:50:15;15.70;99.90
21950;DHT22;11139;51.284;7.226;2023-08-08T13:52:40;15.80;99.90
21950;DHT22;11139;51.284;7.226;2023-08-08T13:55:06;15.80;99.90
21950;DHT22;11139;51.284;7.226;2023-08-08T13:57:32;15.80;99.90
21950;DHT22;11139;51.284;7.226;2023-08-08T13:59:57;15.80;99.90
21950;DHT22;11139;51.284;7.226;2023-08-08T14:02:23;15.80;99.90
21950;DHT22;11139;51.284;7.226;2023-08-08T14:04:48;15.80;99.90
21950;DHT22;11139;51.284;7.226;2023-08-08T14:07:14;15.80;99.90
21950;DHT22;11139;51.284;7.226;2023-08-08T14:09:40;15.80;99.90
21950;DHT22;11139;51.284;7.226;2023-08-08T14:12:05;15.80;99.90
21950;DHT22;11139;51.284;7.226;2023-08-08T14:14:31;15.70;99.90
21950;DHT22;11139;51.284;7.226;2023-08-08T14:16:57;15.70;99.90
21950;DHT22;11139;51.284;7.226;2023-08-08T14:19:23;15.70;99.90
21950;DHT22;11139;51.284;7.226;2023-08-08T14:21:49;15.70;99.90
21950;DHT22;11139;51.284;7.226;2023-08-08T14:24:14;15.60;99.90
21950;DHT22;11139;51.284;7.226;2023-08-08T14:26:40;15.60;99.90
21950;DHT22;11139;51.284;7.226;2023-08-08T14:29:05;15.60;99.90
21950;DHT22;11139;51.284;7.226;2023-08-08T14:31:31;15.60;99.90
21950;DHT22;11139;51.284;7.226;2023-08-08T14:33:56;15.60;99.90
21950;DHT22;11139;51.284;7.226;2023-08-08T14:36:22;15.60;99.90
21950;DHT22;11139;51.284;7.226;2023-08-08T14:38:48;15.60;99.90
21950;DHT22;11139;51.284;7.226;2023-08-08T14:41:13;15.60;99.90
21950;DHT22;11139;51.284;7.226;2023-08-08T14:43:39;15.70;99.90
21950;DHT22;11139;51.284;7.226;2023-08-08T14:46:04;15.80;99.90
21950;DHT22;11139;51.284;7.226;2023-08-08T14:48:30;15.80;99.90
21950;DHT22;11139;51.284;7.226;2023-08-08T14:50:55;15.80;99.90
21950;DHT22;11139;51.284;7.226;2023-08-08T14:53:21;15.80;99.90
21950;DHT22;11139;51.284;7.226;2023-08-08T14:55:46;16.00;99.90
21950;DHT22;11139;51.284;7.226;2023-08-08T14:58:13;16.50;99.90
21950;DHT22;11139;51.284;7.226;2023-08-08T15:00:39;16.70;99.90
21950;DHT22;11139;51.284;7.226;2023-08-08T15:03:04;16.60;99.90
21950;DHT22;11139;51.284;7.226;2023-08-08T15:05:30;16.60;99.90
21950;DHT22;11139;51.284;7.226;2023-08-08T15:07:56;16.60;99.90
21950;DHT22;11139;51.284;7.226;2023-08-08T15:10:21;16.50;99.90
21950;DHT22;11139;51.284;7.226;2023-08-08T15:12:47;16.60;99.90
21950;DHT22;11139;51.284;7.226;2023-08-08T15:15:12;16.50;99.90
21950;DHT22;11139;51.284;7.226;2023-08-08T15:17:39;16.50;99.90
21950;DHT22;11139;51.284;7.226;2023-08-08T15:20:05;16.50;99.90
21950;DHT22;11139;51.284;7.226;2023-08-08T15:22:31;16.60;99.90
21950;DHT22;11139;51.284;7.226;2023-08-08T15:24:56;16.60;99.90
21950;DHT22;11139;51.284;7.226;2023-08-08T15:27:22;16.60;99.90